Rms Voerde — V2AD8 — position and weather

sailwx.info

Track history (hours):
 
Tides and Currents Weather Stations Pressure Air Temp Water Temp Dewpoint Dewpoint Depression Visibility Wind Speed Wind Dir Waves Ship Positions

Rms Voerde

Last reported at 2016-Feb-14 16:28 UTC. Time now 2016-Feb-14 19:01 UTC.
Position N 63°19' E 009°53'.

Length 90 m; draft 4.4 m.

Type: Cargo ship. MMSI: 304010905.

Date/timePositionNaut miles runAvg speedWind from/ knotsBaromVisibWave heightAir tempDewpointWater temp
2016-Feb-14 16:28N 63°19' E 009°53'0 0.0
2016-Feb-14 15:25N 63°19' E 009°53'0 0.0
2016-Feb-14 14:31N 63°19' E 009°53'0 0.0
2016-Feb-14 12:28N 63°19' E 009°53'1 0.1
2016-Feb-14 06:16N 63°20' E 009°53'6 8.4
2016-Feb-14 05:31N 63°26' E 009°60'11 9.3
2016-Feb-14 04:20N 63°35' E 009°49'5 6.9
2016-Feb-14 03:33N 63°39' E 009°39'10 9.9
2016-Feb-14 02:34N 63°34' E 009°20'318 6.9
2016-Feb-12 04:33N 58°45' E 004°42'9 9.4
2016-Feb-12 03:33N 58°38' E 004°54'9 9.5
2016-Feb-12 02:33N 58°32' E 005°07'1010.1
2016-Feb-12 01:33N 58°24' E 005°20'1010.2
2016-Feb-12 00:33N 58°17' E 005°35'1010.4
2016-Feb-11 23:33N 58°10' E 005°50'1110.8
2016-Feb-11 22:33N 58°03' E 006°05'1110.6
2016-Feb-11 21:33N 57°57' E 006°21'1110.8
2016-Feb-11 20:33N 57°51' E 006°38'1110.9
2016-Feb-11 19:33N 57°49' E 006°58'10310.3
2016-Feb-11 09:33N 57°49' E 010°11'1110.5
2016-Feb-11 08:32N 57°49' E 010°31'1010.0
2016-Feb-11 07:33N 57°47' E 010°49'1010.2
2016-Feb-11 06:34N 57°40' E 011°03'1010.2
2016-Feb-11 05:33N 57°33' E 011°17'1010.0
2016-Feb-11 04:34N 57°26' E 011°29'10 9.9
2016-Feb-11 03:33N 57°16' E 011°34'1410.1
2016-Feb-11 02:09N 57°03' E 011°43'610.5
2016-Feb-11 01:33N 56°57' E 011°47'1010.4
2016-Feb-11 00:34N 56°47' E 011°54'1010.2
2016-Feb-10 23:33N 56°37' E 011°59'40 9.5
2016-Feb-10 19:24N 56°04' E 012°38'8 9.7
2016-Feb-10 18:33N 55°57' E 012°44'10 9.5
2016-Feb-10 17:33N 55°47' E 012°43'10 9.7
2016-Feb-10 16:33N 55°37' E 012°42'9 9.2
2016-Feb-10 15:33N 55°28' E 012°43'10 9.8
2016-Feb-10 14:34N 55°18' E 012°42'9 9.2
2016-Feb-10 13:33N 55°15' E 012°56'83 8.3
2016-Feb-10 03:33N 54°06' E 014°15'1010.0
2016-Feb-10 02:33N 53°56' E 014°17'8 7.8
2016-Feb-10 01:33N 53°48' E 014°21'10 9.7
2016-Feb-10 00:33N 53°41' E 014°31'10 9.7
2016-Feb-09 23:34N 53°32' E 014°38'3 3.3
2016-Feb-09 22:31N 53°29' E 014°37'0 0.0
2016-Feb-09 21:31N 53°29' E 014°37'0 0.0
2016-Feb-09 20:31N 53°29' E 014°37'0 0.0
2016-Feb-09 19:31N 53°29' E 014°37'0 0.0
2016-Feb-09 18:31N 53°29' E 014°37'0 0.0
2016-Feb-09 17:31N 53°29' E 014°37'0 0.0
2016-Feb-09 16:31N 53°29' E 014°37'0 0.0
2016-Feb-09 15:31N 53°29' E 014°37'0 0.0
2016-Feb-09 14:31N 53°29' E 014°37'0 0.0
2016-Feb-09 13:31N 53°29' E 014°37'0 0.0
2016-Feb-09 12:31N 53°29' E 014°37'0 0.0
2016-Feb-09 11:31N 53°29' E 014°37'0 0.0
2016-Feb-09 10:31N 53°29' E 014°37'0 0.0
2016-Feb-09 09:31N 53°29' E 014°37'0 0.0
2016-Feb-09 08:31N 53°29' E 014°37'0 0.0
2016-Feb-09 07:31N 53°29' E 014°37'0 0.0
2016-Feb-09 06:31N 53°29' E 014°37'0 0.0
2016-Feb-09 05:31N 53°29' E 014°37'0 0.0
2016-Feb-09 04:31N 53°29' E 014°37'0 0.0
2016-Feb-09 03:31N 53°29' E 014°37'0 0.0
2016-Feb-09 02:31N 53°29' E 014°37'0 0.0
2016-Feb-09 01:31N 53°29' E 014°37'0 0.0
2016-Feb-09 00:31N 53°29' E 014°37'0 0.0
2016-Feb-08 23:31N 53°29' E 014°37'0 0.0
2016-Feb-08 22:31N 53°29' E 014°37'0 0.0
2016-Feb-08 21:31N 53°29' E 014°37'0 0.0
2016-Feb-08 20:31N 53°29' E 014°37'0 0.0
2016-Feb-08 19:33N 53°29' E 014°37'4 4.4
2016-Feb-08 18:34N 53°24' E 014°36'0 0.1
2016-Feb-08 17:32N 53°24' E 014°36'0 0.0
2016-Feb-08 16:32N 53°24' E 014°36'0 0.0
2016-Feb-08 15:32N 53°24' E 014°36'0 0.0
2016-Feb-08 14:32N 53°24' E 014°36'0 0.0
2016-Feb-08 13:32N 53°24' E 014°36'0 0.0
2016-Feb-08 12:32N 53°24' E 014°36'0 0.0
2016-Feb-08 11:32N 53°24' E 014°36'0 0.0
2016-Feb-08 10:32N 53°24' E 014°36'0 0.0
2016-Feb-08 09:23N 53°24' E 014°36'0 0.0
2016-Feb-08 08:32N 53°24' E 014°36'0 0.0
2016-Feb-08 07:32N 53°24' E 014°36'0 0.0
2016-Feb-08 06:32N 53°24' E 014°36'0 0.0
2016-Feb-08 05:32N 53°24' E 014°36'0 0.0
2016-Feb-08 04:29N 53°24' E 014°36'0 0.0
2016-Feb-08 03:32N 53°24' E 014°36'0 0.0
2016-Feb-08 02:32N 53°24' E 014°36'0 0.0
2016-Feb-08 01:32N 53°24' E 014°36'0 0.0
2016-Feb-08 00:32N 53°24' E 014°36'0 0.2
2016-Feb-07 23:33N 53°24' E 014°36'8 8.1
2016-Feb-07 22:33N 53°32' E 014°38'10 9.6
2016-Feb-07 21:33N 53°41' E 014°30'1010.4
2016-Feb-07 20:33N 53°49' E 014°19'8 8.1
2016-Feb-07 19:33N 53°57' E 014°16'10 9.9
2016-Feb-07 18:33N 54°06' E 014°09'89 9.7
2016-Feb-07 09:22N 55°18' E 012°39'7 8.6
2016-Feb-07 08:33N 55°25' E 012°40'9 9.1
2016-Feb-07 07:33N 55°34' E 012°42'8 8.3
2016-Feb-07 06:33N 55°42' E 012°41'8 8.4
2016-Feb-07 05:33N 55°50' E 012°41'8 8.4
2016-Feb-07 04:33N 55°59' E 012°38'8 7.6
2016-Feb-07 03:33N 56°06' E 012°33'1110.5
2016-Feb-07 02:33N 56°12' E 012°18'46 9.2
2016-Feb-06 21:31N 56°55' E 011°46'33 9.8
2016-Feb-06 18:13N 57°25' E 011°24'7 9.9
2016-Feb-06 17:33N 57°30' E 011°17'1010.3
2016-Feb-06 16:33N 57°37' E 011°02'1010.3
2016-Feb-06 15:33N 57°44' E 010°47'1110.1
2016-Feb-06 14:29N 57°47' E 010°29'2310.9
2016-Feb-06 12:24N 57°49' E 009°46'87 9.5
2016-Feb-06 03:14N 57°55' E 007°04'6 9.3
2016-Feb-06 02:33N 57°57' E 006°53'9 9.2
2016-Feb-06 01:33N 58°01' E 006°37'9 9.0
2016-Feb-06 00:33N 58°07' E 006°25'9 8.9
2016-Feb-05 23:33N 58°15' E 006°15'4 0.4
2016-Feb-05 13:33N 58°19' E 006°18'8 8.5
2016-Feb-05 12:33N 58°10' E 006°23'1110.6
2016-Feb-05 11:33N 58°03' E 006°37'1111.1
2016-Feb-05 10:34N 57°58' E 006°56'1210.7
2016-Feb-05 09:27N 57°56' E 007°18'3211.0
2016-Feb-05 06:34N 58°04' E 008°16'1111.3
2016-Feb-05 05:33N 58°11' E 008°33'1211.9
2016-Feb-05 04:33N 58°18' E 008°51'5911.7
2016-Feb-04 23:33N 58°55' E 010°18'1110.9
2016-Feb-04 22:33N 59°03' E 010°33'1110.6
2016-Feb-04 21:34N 59°13' E 010°36'1110.9
2016-Feb-04 20:34N 59°24' E 010°30'1110.5
2016-Feb-04 19:34N 59°34' E 010°25'  
Track history (hours):
 
Tides and Currents Weather Stations Pressure Air Temp Water Temp Dewpoint Dewpoint Depression Visibility Wind Speed Wind Dir Waves Ship Positions

Rms Voerde

Last reported at 2016-Feb-14 16:28 UTC. Time now 2016-Feb-14 19:01 UTC.
Position N 63°19' E 009°53'.

Length 90 m; draft 4.4 m.

Type: Cargo ship. MMSI: 304010905.

Date/timePositionNaut miles runAvg speedWind from/ knotsBaromVisibWave heightAir tempDewpointWater temp
2016-Feb-14 16:28N 63°19' E 009°53'0 0.0
2016-Feb-14 15:25N 63°19' E 009°53'0 0.0
2016-Feb-14 14:31N 63°19' E 009°53'0 0.0
2016-Feb-14 12:28N 63°19' E 009°53'1 0.1
2016-Feb-14 06:16N 63°20' E 009°53'6 8.4
2016-Feb-14 05:31N 63°26' E 009°60'11 9.3
2016-Feb-14 04:20N 63°35' E 009°49'5 6.9
2016-Feb-14 03:33N 63°39' E 009°39'10 9.9
2016-Feb-14 02:34N 63°34' E 009°20'318 6.9
2016-Feb-12 04:33N 58°45' E 004°42'9 9.4
2016-Feb-12 03:33N 58°38' E 004°54'9 9.5
2016-Feb-12 02:33N 58°32' E 005°07'1010.1
2016-Feb-12 01:33N 58°24' E 005°20'1010.2
2016-Feb-12 00:33N 58°17' E 005°35'1010.4
2016-Feb-11 23:33N 58°10' E 005°50'1110.8
2016-Feb-11 22:33N 58°03' E 006°05'1110.6
2016-Feb-11 21:33N 57°57' E 006°21'1110.8
2016-Feb-11 20:33N 57°51' E 006°38'1110.9
2016-Feb-11 19:33N 57°49' E 006°58'10310.3
2016-Feb-11 09:33N 57°49' E 010°11'1110.5
2016-Feb-11 08:32N 57°49' E 010°31'1010.0
2016-Feb-11 07:33N 57°47' E 010°49'1010.2
2016-Feb-11 06:34N 57°40' E 011°03'1010.2
2016-Feb-11 05:33N 57°33' E 011°17'1010.0
2016-Feb-11 04:34N 57°26' E 011°29'10 9.9
2016-Feb-11 03:33N 57°16' E 011°34'1410.1
2016-Feb-11 02:09N 57°03' E 011°43'610.5
2016-Feb-11 01:33N 56°57' E 011°47'1010.4
2016-Feb-11 00:34N 56°47' E 011°54'1010.2
2016-Feb-10 23:33N 56°37' E 011°59'40 9.5
2016-Feb-10 19:24N 56°04' E 012°38'8 9.7
2016-Feb-10 18:33N 55°57' E 012°44'10 9.5
2016-Feb-10 17:33N 55°47' E 012°43'10 9.7
2016-Feb-10 16:33N 55°37' E 012°42'9 9.2
2016-Feb-10 15:33N 55°28' E 012°43'10 9.8
2016-Feb-10 14:34N 55°18' E 012°42'9 9.2
2016-Feb-10 13:33N 55°15' E 012°56'83 8.3
2016-Feb-10 03:33N 54°06' E 014°15'1010.0
2016-Feb-10 02:33N 53°56' E 014°17'8 7.8
2016-Feb-10 01:33N 53°48' E 014°21'10 9.7
2016-Feb-10 00:33N 53°41' E 014°31'10 9.7
2016-Feb-09 23:34N 53°32' E 014°38'3 3.3
2016-Feb-09 22:31N 53°29' E 014°37'0 0.0
2016-Feb-09 21:31N 53°29' E 014°37'0 0.0
2016-Feb-09 20:31N 53°29' E 014°37'0 0.0
2016-Feb-09 19:31N 53°29' E 014°37'0 0.0
2016-Feb-09 18:31N 53°29' E 014°37'0 0.0
2016-Feb-09 17:31N 53°29' E 014°37'0 0.0
2016-Feb-09 16:31N 53°29' E 014°37'0 0.0
2016-Feb-09 15:31N 53°29' E 014°37'0 0.0
2016-Feb-09 14:31N 53°29' E 014°37'0 0.0
2016-Feb-09 13:31N 53°29' E 014°37'0 0.0
2016-Feb-09 12:31N 53°29' E 014°37'0 0.0
2016-Feb-09 11:31N 53°29' E 014°37'0 0.0
2016-Feb-09 10:31N 53°29' E 014°37'0 0.0
2016-Feb-09 09:31N 53°29' E 014°37'0 0.0
2016-Feb-09 08:31N 53°29' E 014°37'0 0.0
2016-Feb-09 07:31N 53°29' E 014°37'0 0.0
2016-Feb-09 06:31N 53°29' E 014°37'0 0.0
2016-Feb-09 05:31N 53°29' E 014°37'0 0.0
2016-Feb-09 04:31N 53°29' E 014°37'0 0.0
2016-Feb-09 03:31N 53°29' E 014°37'0 0.0
2016-Feb-09 02:31N 53°29' E 014°37'0 0.0
2016-Feb-09 01:31N 53°29' E 014°37'0 0.0
2016-Feb-09 00:31N 53°29' E 014°37'0 0.0
2016-Feb-08 23:31N 53°29' E 014°37'0 0.0
2016-Feb-08 22:31N 53°29' E 014°37'0 0.0
2016-Feb-08 21:31N 53°29' E 014°37'0 0.0
2016-Feb-08 20:31N 53°29' E 014°37'0 0.0
2016-Feb-08 19:33N 53°29' E 014°37'4 4.4
2016-Feb-08 18:34N 53°24' E 014°36'0 0.1
2016-Feb-08 17:32N 53°24' E 014°36'0 0.0
2016-Feb-08 16:32N 53°24' E 014°36'0 0.0
2016-Feb-08 15:32N 53°24' E 014°36'0 0.0
2016-Feb-08 14:32N 53°24' E 014°36'0 0.0
2016-Feb-08 13:32N 53°24' E 014°36'0 0.0
2016-Feb-08 12:32N 53°24' E 014°36'0 0.0
2016-Feb-08 11:32N 53°24' E 014°36'0 0.0
2016-Feb-08 10:32N 53°24' E 014°36'0 0.0
2016-Feb-08 09:23N 53°24' E 014°36'0 0.0
2016-Feb-08 08:32N 53°24' E 014°36'0 0.0
2016-Feb-08 07:32N 53°24' E 014°36'0 0.0
2016-Feb-08 06:32N 53°24' E 014°36'0 0.0
2016-Feb-08 05:32N 53°24' E 014°36'0 0.0
2016-Feb-08 04:29N 53°24' E 014°36'0 0.0
2016-Feb-08 03:32N 53°24' E 014°36'0 0.0
2016-Feb-08 02:32N 53°24' E 014°36'0 0.0
2016-Feb-08 01:32N 53°24' E 014°36'0 0.0
2016-Feb-08 00:32N 53°24' E 014°36'0 0.2
2016-Feb-07 23:33N 53°24' E 014°36'8 8.1
2016-Feb-07 22:33N 53°32' E 014°38'10 9.6
2016-Feb-07 21:33N 53°41' E 014°30'1010.4
2016-Feb-07 20:33N 53°49' E 014°19'8 8.1
2016-Feb-07 19:33N 53°57' E 014°16'10 9.9
2016-Feb-07 18:33N 54°06' E 014°09'89 9.7
2016-Feb-07 09:22N 55°18' E 012°39'7 8.6
2016-Feb-07 08:33N 55°25' E 012°40'9 9.1
2016-Feb-07 07:33N 55°34' E 012°42'8 8.3
2016-Feb-07 06:33N 55°42' E 012°41'8 8.4
2016-Feb-07 05:33N 55°50' E 012°41'8 8.4
2016-Feb-07 04:33N 55°59' E 012°38'8 7.6
2016-Feb-07 03:33N 56°06' E 012°33'1110.5
2016-Feb-07 02:33N 56°12' E 012°18'46 9.2
2016-Feb-06 21:31N 56°55' E 011°46'33 9.8
2016-Feb-06 18:13N 57°25' E 011°24'7 9.9
2016-Feb-06 17:33N 57°30' E 011°17'1010.3
2016-Feb-06 16:33N 57°37' E 011°02'1010.3
2016-Feb-06 15:33N 57°44' E 010°47'1110.1
2016-Feb-06 14:29N 57°47' E 010°29'2310.9
2016-Feb-06 12:24N 57°49' E 009°46'87 9.5
2016-Feb-06 03:14N 57°55' E 007°04'6 9.3
2016-Feb-06 02:33N 57°57' E 006°53'9 9.2
2016-Feb-06 01:33N 58°01' E 006°37'9 9.0
2016-Feb-06 00:33N 58°07' E 006°25'9 8.9
2016-Feb-05 23:33N 58°15' E 006°15'4 0.4
2016-Feb-05 13:33N 58°19' E 006°18'8 8.5
2016-Feb-05 12:33N 58°10' E 006°23'1110.6
2016-Feb-05 11:33N 58°03' E 006°37'1111.1
2016-Feb-05 10:34N 57°58' E 006°56'1210.7
2016-Feb-05 09:27N 57°56' E 007°18'3211.0
2016-Feb-05 06:34N 58°04' E 008°16'1111.3
2016-Feb-05 05:33N 58°11' E 008°33'1211.9
2016-Feb-05 04:33N 58°18' E 008°51'5911.7
2016-Feb-04 23:33N 58°55' E 010°18'1110.9
2016-Feb-04 22:33N 59°03' E 010°33'1110.6
2016-Feb-04 21:34N 59°13' E 010°36'1110.9
2016-Feb-04 20:34N 59°24' E 010°30'1110.5
2016-Feb-04 19:34N 59°34' E 010°25'  

Dump ship's entire track history